METAR Data
IDs: Format: Raw Decoded Include TAF

Data at: 1827 UTC 06 Jul 2020

State: AZ
No TAF found for K40G
No TAF found for KA39
KALK 061756Z AUTO 10SM CLR 34/03 A3015 RMK AO2 SLP100 T03440028 10344 20217 58001
No TAF found for KALK

KAVQ 061815Z AUTO 30005KT 10SM CLR 36/M03 A2992 RMK AO2 T03551029
No TAF found for KAVQ

KAZC 061815Z AUTO 23011G16KT 10SM CLR 35/M01 A3013 RMK AO2
No TAF found for KAZC

KBXK 061815Z AUTO 18007KT 10SM 39/06 A2985 RMK A01
No TAF found for KBXK

KCGZ 061756Z AUTO VRB03KT 10SM CLR 39/05 A2990 RMK AO2 SLP103 T03940050 10394 20244 51007
No TAF found for KCGZ

KCHD 061747Z 00000KT 10SM SKC 39/01 A2988
No TAF found for KCHD

KCMR 061815Z AUTO 26013G18KT 10SM CLR 29/M03 A3028 RMK AO2
No TAF found for KCMR

KDMA 061758Z AUTO 34007KT 10SM CLR 36/04 A2998 RMK AO2 SLP100 T03640035 10365 20248 50002 FZRANO $

TAF KDMA 061400Z 0614/0720 VRB06KT 9999 FEW150 QNH2996INS
  BECMG 0619/0620 30009KT 9999 SCT160 QNH2984INS
  TEMPO 0621/0701 32012G18KT
  BECMG 0703/0704 VRB06KT 9999 SCT160 QNH2988INS TX41/0621Z TN25/0712Z


No TAF found for KDUG
KDVT 061753Z COR 20005KT 10SM CLR 38/04 A2988 RMK AO2 SLP089 T03780039 10378 20239 53007 $

KDVT 061720Z 0618/0718 VRB06KT P6SM FEW150
  FM062000 23008KT P6SM FEW150
  FM062100 24008G16KT P6SM FEW150
  FM070100 25008KT P6SM FEW150
  FM070500 VRB04KT P6SM FEW150
  FM071500 19009KT P6SM FEW120 SCT150


KFFZ 061754Z 20006KT 10SM CLR 38/02 A2988 RMK AO2 SLP088 T03830017 10383 20272 51005
No TAF found for KFFZ

KFHU 061758Z AUTO 35003KT 10SM CLR 33/05 A3015 RMK AO2 SLP122 T03250051 10325 20196 50002

TAF KFHU 061800Z 0618/0724 32009KT 9999 FEW130 QNH3003INS
  BECMG 0720/0721 VRB06KT 9999 SCT110 QNH3003INS TX36/0620Z TN18/0712Z


KFLG 061757Z 22013G22KT 10SM CLR 27/M04 A3031 RMK AO2 SLP138 T02721039 10283 20117 53005

KFLG 061723Z 0618/0718 23014G21KT P6SM SKC
  FM070300 24007KT P6SM SKC
  FM071700 22010G20KT P6SM SKC


KGCN 061754Z 21011KT 180V260 10SM CLR 29/M02 A3027 RMK AO2 SLP144 T02891022 10289 20056 50002

KGCN 061723Z 0618/0718 22013G19KT P6SM SKC
  FM070600 VRB03KT P6SM SKC
  FM071700 23015G20KT P6SM SKC


KGEU 061747Z 16007KT 10SM FEW150 38/05 A2987
No TAF found for KGEU

KGXF 061758Z 22006KT 10SM FEW140 40/06 A2983 RMK AO2A SLP085 T04040055 10404 20265 52003
No TAF found for KGXF

KGYR 061747Z COR 11004KT 10SM FEW150 39/07 A2985
No TAF found for KGYR

KHII 061815Z AUTO 16017G21KT 10SM CLR 41/M07 A2979 RMK AO2
No TAF found for KHII

KIFP 061755Z 22003KT 10SM SKC 35/00 A2978

KIFP 061721Z 0618/0718 20010KT P6SM SKC
  FM062000 19016G24KT P6SM SKC
  FM070300 15009KT P6SM SKC
  FM070700 VRB05KT P6SM SKC
  FM071500 18010G19KT P6SM SKC


KIGM 061751Z AUTO 22017G28KT 10SM CLR 37/M09 A3000 RMK AO2 PK WND 20029/1730 SLP078 T03671089 10367 20194 51003
No TAF found for KIGM

KINW 061756Z AUTO 05006KT 10SM CLR 34/M02 A3012 RMK AO2 SLP108 T03441017 10350 20150 58004

KINW 061723Z 0618/0718 27008KT P6SM FEW150
  FM061900 26010G16KT P6SM SKC
  FM070700 23009KT P6SM SKC


KIWA 061750Z 23004KT 10SM SCT180 38/03 A2990

KIWA 061720Z 0618/0718 28007KT P6SM FEW150
  TEMPO 0621/0701 28008G16KT
  FM070200 28006KT P6SM FEW150
  FM070700 13007KT P6SM FEW120 SCT150


KJTC 061815Z AUTO 32010G17KT 10SM CLR 31/M08 A3032 RMK AO2
No TAF found for KJTC

KLGF 061758Z AUTO 00000KT 10SM CLR 38/07 A2980 RMK AO2 SLP086 T03820073 10390 20250 50008 $
No TAF found for KLGF

KLUF 061758Z AUTO 17010KT 10SM CLR 38/04 A2984 RMK AO2 SLP088 T03830039 10384 20246 52006 $
No TAF found for KLUF

KNOZ 061759Z AUTO 14010KT 10SM CLR 39/14 A2981 RMK AO2 SLP044 T03890144 10389 20267 50006 $
No TAF found for KNOZ

KNYL 061757Z 16008KT 7SM FEW150 39/09 A2979 RMK AO2 SLP085 T03890094 10389 20261 50006 $

TAF KNYL 0615/0715 18010KT 9999 FEW150 QNH2966INS
  BECMG 0705/0707 VRB05KT 9999 FEW150 QNH2972INS T44/0622Z T25/0713Z


KOLS 061754Z AUTO 00000KT 10SM CLR 33/09 A3008 RMK AO2 SLP103 T03330089 10344 20206 50001

KOLS 061733Z 0618/0718 25005KT P6SM FEW140
  FM062000 29010G18KT P6SM SCT100
  FM070300 VRB04KT P6SM SCT120


No TAF found for KP08
KPAN 061815Z AUTO VRB05G11KT 10SM CLR 33/M06 A3019 RMK AO2
No TAF found for KPAN

KPGA 061753Z AUTO 35007KT 310V020 10SM CLR 36/M04 A3004 RMK AO2 SLP087 T03561044 10356 20228 58003 TSNO

KPGA 061723Z 0618/0718 VRB06KT P6SM SKC
  FM062100 19009G15KT P6SM SKC
  FM062300 22010KT P6SM SKC


KPHX 061751Z VRB04KT 10SM FEW150 41/02 A2984 RMK AO2 SLP082 T04060022 10406 20283 51004 $

KPHX 061720Z 0618/0724 27007KT P6SM FEW150
  FM062100 28011G18KT P6SM FEW150
  FM070100 28008KT P6SM FEW150
  FM071100 12007KT P6SM FEW120 SCT150
  FM071800 26008KT P6SM FEW100 FEW150


KPRC 061753Z 23015KT 10SM CLR 32/M04 A3015 RMK AO2 SLP116 T03221039 10322 20172 52002

KPRC 061723Z 0618/0718 23012G19KT P6SM SKC
  FM070700 21007KT P6SM SKC
  FM071100 18008KT P6SM SKC


KRQE 061753Z AUTO VRB03G17KT 10SM CLR 32/M05 A3024 RMK AO2 SLP096 T03221050 10333 20122 56003
No TAF found for KRQE

KRYN 061755Z 25003KT 10SM CLR 38/02 A2998
No TAF found for KRYN

KSAD 061751Z AUTO 28016G24KT 10SM CLR 38/01 A2996 RMK AO2 SLP076 T03830011 10383 20233 55002
No TAF found for KSAD

KSDL 061753Z 22005KT 10SM CLR 38/03 A2989 RMK AO2 SLP090 T03780033 10378 20272 51006

KSDL 061720Z 0618/0718 VRB06KT P6SM FEW150
  FM062100 26008KT P6SM FEW150
  TEMPO 0621/0701 28008G16KT
  FM070200 VRB06KT P6SM FEW150
  FM071600 18007KT P6SM FEW120 SCT150


KSEZ 061815Z AUTO 16005KT 10SM CLR 35/M01 A3014 RMK AO2

KSEZ 061723Z 0618/0718 21008G16KT P6SM SKC
  FM070100 24012KT P6SM SKC
  FM070500 00000KT P6SM SKC


KSJN 061754Z AUTO 32015KT 10SM CLR 33/M03 A3019 RMK AO2 SLP104 T03281033 10333 20172 50000
No TAF found for KSJN

KSOW 061815Z AUTO 17004G10KT 10SM FEW075 FEW100 31/M06 A3027 RMK AO2
No TAF found for KSOW

KTUS 061753Z VRB05KT 10SM CLR 37/03 A2999 RMK AO2 SLP097 T03720033 10372 20250 51003

KTUS 061733Z 0618/0718 29005KT P6SM FEW140
  FM062000 32010G18KT P6SM SCT110
  FM070400 24007KT P6SM SCT140
  FM070700 14007KT P6SM SCT140


KTYL 061815Z AUTO 33004KT 10SM CLR 32/M03 A3022 RMK AO2
No TAF found for KTYL

No TAF found for KYUM